Eizo Maru — JD2944 — position and weather

sailwx.info

Track history (hours):
 
Tides and Currents Weather Stations Pressure Air Temp Water Temp Dewpoint Dewpoint Depression Visibility Wind Speed Wind Dir Waves Ship Positions

Eizo Maru

Last reported at 2017-Feb-21 10:28 UTC. Time now 2017-Feb-21 18:56 UTC.
Position N 35°04' E 139°35'.

Length 80 m; draft 5.2 m.

Type: Tanker. MMSI: 431000976.

Date/timePositionNaut miles runAvg speedWind from/ knotsBaromVisibWave heightAir tempDewpointWater temp
2017-Feb-21 10:28N 35°04' E 139°35'1212.9
2017-Feb-21 09:33N 35°12' E 139°46'1212.2
2017-Feb-21 08:34N 35°24' E 139°43'8 1.8
2017-Feb-21 04:07N 35°31' E 139°46'2 3.1
2017-Feb-21 03:33N 35°30' E 139°48'5 4.7
2017-Feb-21 02:32N 35°33' E 139°53'0 0.0
2017-Feb-21 01:32N 35°33' E 139°53'0 0.0
2017-Feb-21 00:33N 35°33' E 139°53'0 0.0
2017-Feb-20 23:33N 35°33' E 139°53'0 0.0
2017-Feb-20 22:30N 35°33' E 139°53'0 0.0
2017-Feb-20 21:30N 35°33' E 139°53'0 0.0
2017-Feb-20 18:32N 35°33' E 139°53'0 0.0
2017-Feb-20 17:32N 35°33' E 139°53'0 0.0
2017-Feb-20 16:31N 35°33' E 139°53'0 0.0
2017-Feb-20 15:32N 35°33' E 139°53'0 0.0
2017-Feb-20 14:33N 35°33' E 139°53'0 0.0
2017-Feb-20 12:24N 35°33' E 139°53'0 0.0
2017-Feb-20 10:17N 35°33' E 139°53'0 0.0
2017-Feb-20 09:04N 35°33' E 139°53'0 0.0
2017-Feb-20 08:32N 35°33' E 139°53'5 5.3
2017-Feb-20 07:33N 35°29' E 139°49'0 0.3
2017-Feb-20 06:31N 35°29' E 139°49'0 0.0
2017-Feb-20 05:33N 35°29' E 139°49'0 0.0
2017-Feb-20 04:33N 35°29' E 139°49'0 0.0
2017-Feb-20 03:33N 35°29' E 139°49'0 0.0
2017-Feb-20 02:33N 35°29' E 139°49'0 0.0
2017-Feb-20 01:33N 35°29' E 139°49'6 5.8
2017-Feb-20 00:33N 35°24' E 139°46'1211.7
2017-Feb-19 23:33N 35°12' E 139°47'1413.7
2017-Feb-19 22:33N 34°59' E 139°43'1 0.0
2017-Feb-18 01:15N 34°57' E 139°44'912.2
2017-Feb-18 00:33N 35°06' E 139°45'1212.1
2017-Feb-17 23:32N 35°18' E 139°44'1111.1
2017-Feb-17 22:34N 35°28' E 139°49'8 1.9
2017-Feb-17 18:33N 35°35' E 139°54'0 0.0
2017-Feb-17 17:33N 35°35' E 139°54'0 0.0
2017-Feb-17 12:32N 35°35' E 139°54'0 0.1
2017-Feb-17 10:29N 35°35' E 139°54'0 0.0
2017-Feb-17 09:25N 35°35' E 139°54'0 0.0
2017-Feb-17 08:29N 35°35' E 139°54'0 0.0
2017-Feb-17 07:19N 35°35' E 139°54'0 0.0
2017-Feb-17 06:30N 35°35' E 139°54'0 0.0
2017-Feb-17 05:23N 35°35' E 139°54'6 0.8
2017-Feb-16 22:20N 35°31' E 139°58'0 0.1
2017-Feb-16 21:31N 35°31' E 139°58'0 0.0
2017-Feb-16 20:30N 35°31' E 139°58'0 0.0
2017-Feb-16 18:26N 35°31' E 139°58'910.4
2017-Feb-16 17:33N 35°26' E 139°48'1111.1
2017-Feb-16 16:33N 35°15' E 139°47'1312.8
2017-Feb-16 15:33N 35°03' E 139°41'13 0.4
2017-Feb-15 08:32N 35°15' E 139°46'1111.1
2017-Feb-15 07:33N 35°26' E 139°45'6 0.4
2017-Feb-14 16:34N 35°28' E 139°52'  
2017-Feb-11 22:33N 35°15' E 139°46'1111.2
2017-Feb-11 21:33N 35°26' E 139°45'4 4.1
2017-Feb-11 20:32N 35°29' E 139°49'0 0.1
2017-Feb-11 19:32N 35°29' E 139°49'0 0.0
2017-Feb-11 18:32N 35°29' E 139°49'0 0.0
2017-Feb-11 17:32N 35°29' E 139°49'0 0.0
2017-Feb-11 16:32N 35°29' E 139°49'0 0.0
2017-Feb-11 15:32N 35°29' E 139°49'0 0.0
2017-Feb-11 14:29N 35°29' E 139°49'0 0.0
2017-Feb-11 13:32N 35°29' E 139°49'0 0.0
2017-Feb-11 12:32N 35°29' E 139°49'0 0.1
2017-Feb-11 11:32N 35°29' E 139°49'0 0.1
2017-Feb-11 10:32N 35°29' E 139°49'  
Track history (hours):
 
Tides and Currents Weather Stations Pressure Air Temp Water Temp Dewpoint Dewpoint Depression Visibility Wind Speed Wind Dir Waves Ship Positions

Eizo Maru

Last reported at 2017-Feb-21 10:28 UTC. Time now 2017-Feb-21 18:56 UTC.
Position N 35°04' E 139°35'.

Length 80 m; draft 5.2 m.

Type: Tanker. MMSI: 431000976.

Date/timePositionNaut miles runAvg speedWind from/ knotsBaromVisibWave heightAir tempDewpointWater temp
2017-Feb-21 10:28N 35°04' E 139°35'1212.9
2017-Feb-21 09:33N 35°12' E 139°46'1212.2
2017-Feb-21 08:34N 35°24' E 139°43'8 1.8
2017-Feb-21 04:07N 35°31' E 139°46'2 3.1
2017-Feb-21 03:33N 35°30' E 139°48'5 4.7
2017-Feb-21 02:32N 35°33' E 139°53'0 0.0
2017-Feb-21 01:32N 35°33' E 139°53'0 0.0
2017-Feb-21 00:33N 35°33' E 139°53'0 0.0
2017-Feb-20 23:33N 35°33' E 139°53'0 0.0
2017-Feb-20 22:30N 35°33' E 139°53'0 0.0
2017-Feb-20 21:30N 35°33' E 139°53'0 0.0
2017-Feb-20 18:32N 35°33' E 139°53'0 0.0
2017-Feb-20 17:32N 35°33' E 139°53'0 0.0
2017-Feb-20 16:31N 35°33' E 139°53'0 0.0
2017-Feb-20 15:32N 35°33' E 139°53'0 0.0
2017-Feb-20 14:33N 35°33' E 139°53'0 0.0
2017-Feb-20 12:24N 35°33' E 139°53'0 0.0
2017-Feb-20 10:17N 35°33' E 139°53'0 0.0
2017-Feb-20 09:04N 35°33' E 139°53'0 0.0
2017-Feb-20 08:32N 35°33' E 139°53'5 5.3
2017-Feb-20 07:33N 35°29' E 139°49'0 0.3
2017-Feb-20 06:31N 35°29' E 139°49'0 0.0
2017-Feb-20 05:33N 35°29' E 139°49'0 0.0
2017-Feb-20 04:33N 35°29' E 139°49'0 0.0
2017-Feb-20 03:33N 35°29' E 139°49'0 0.0
2017-Feb-20 02:33N 35°29' E 139°49'0 0.0
2017-Feb-20 01:33N 35°29' E 139°49'6 5.8
2017-Feb-20 00:33N 35°24' E 139°46'1211.7
2017-Feb-19 23:33N 35°12' E 139°47'1413.7
2017-Feb-19 22:33N 34°59' E 139°43'1 0.0
2017-Feb-18 01:15N 34°57' E 139°44'912.2
2017-Feb-18 00:33N 35°06' E 139°45'1212.1
2017-Feb-17 23:32N 35°18' E 139°44'1111.1
2017-Feb-17 22:34N 35°28' E 139°49'8 1.9
2017-Feb-17 18:33N 35°35' E 139°54'0 0.0
2017-Feb-17 17:33N 35°35' E 139°54'0 0.0
2017-Feb-17 12:32N 35°35' E 139°54'0 0.1
2017-Feb-17 10:29N 35°35' E 139°54'0 0.0
2017-Feb-17 09:25N 35°35' E 139°54'0 0.0
2017-Feb-17 08:29N 35°35' E 139°54'0 0.0
2017-Feb-17 07:19N 35°35' E 139°54'0 0.0
2017-Feb-17 06:30N 35°35' E 139°54'0 0.0
2017-Feb-17 05:23N 35°35' E 139°54'6 0.8
2017-Feb-16 22:20N 35°31' E 139°58'0 0.1
2017-Feb-16 21:31N 35°31' E 139°58'0 0.0
2017-Feb-16 20:30N 35°31' E 139°58'0 0.0
2017-Feb-16 18:26N 35°31' E 139°58'910.4
2017-Feb-16 17:33N 35°26' E 139°48'1111.1
2017-Feb-16 16:33N 35°15' E 139°47'1312.8
2017-Feb-16 15:33N 35°03' E 139°41'13 0.4
2017-Feb-15 08:32N 35°15' E 139°46'1111.1
2017-Feb-15 07:33N 35°26' E 139°45'6 0.4
2017-Feb-14 16:34N 35°28' E 139°52'  
2017-Feb-11 22:33N 35°15' E 139°46'1111.2
2017-Feb-11 21:33N 35°26' E 139°45'4 4.1
2017-Feb-11 20:32N 35°29' E 139°49'0 0.1
2017-Feb-11 19:32N 35°29' E 139°49'0 0.0
2017-Feb-11 18:32N 35°29' E 139°49'0 0.0
2017-Feb-11 17:32N 35°29' E 139°49'0 0.0
2017-Feb-11 16:32N 35°29' E 139°49'0 0.0
2017-Feb-11 15:32N 35°29' E 139°49'0 0.0
2017-Feb-11 14:29N 35°29' E 139°49'0 0.0
2017-Feb-11 13:32N 35°29' E 139°49'0 0.0
2017-Feb-11 12:32N 35°29' E 139°49'0 0.1
2017-Feb-11 11:32N 35°29' E 139°49'0 0.1
2017-Feb-11 10:32N 35°29' E 139°49'  

Dump ship's entire track history